createdAt,value
2018-12-04T00:00:07.075Z,961.96
2018-12-04T00:01:07.073Z,962.09
2018-12-04T00:02:07.070Z,962.09
2018-12-04T00:03:07.070Z,962.08
2018-12-04T00:04:07.091Z,962.09
2018-12-04T00:05:07.067Z,962.10
2018-12-04T00:06:07.059Z,962.11
2018-12-04T00:07:07.100Z,962.14
2018-12-04T00:08:07.059Z,962.17
2018-12-04T00:09:07.079Z,962.19
2018-12-04T00:10:07.048Z,962.23
2018-12-04T00:20:17.274Z,962.06
2018-12-04T00:21:17.254Z,962.10
2018-12-04T00:22:17.263Z,962.10
2018-12-04T00:23:17.242Z,962.09
2018-12-04T00:24:17.262Z,962.13
2018-12-04T00:25:17.238Z,962.15
2018-12-04T00:26:17.234Z,962.11
2018-12-04T00:27:17.229Z,962.16
2018-12-04T00:28:17.227Z,962.13
2018-12-04T00:29:17.250Z,962.15
2018-12-04T00:30:17.238Z,962.11
2018-12-04T00:31:17.225Z,962.13
2018-12-04T00:32:17.215Z,962.14
2018-12-04T00:33:17.213Z,962.17
2018-12-04T00:34:17.234Z,962.18
2018-12-04T00:35:17.206Z,962.15
2018-12-04T00:36:17.202Z,962.12
2018-12-04T00:37:17.201Z,962.17
2018-12-04T00:38:17.200Z,962.15
2018-12-04T00:39:17.232Z,962.18
2018-12-04T00:40:17.263Z,962.21
2018-12-04T00:41:17.193Z,962.20
2018-12-04T00:42:17.186Z,962.15
2018-12-04T00:43:17.181Z,962.13
2018-12-04T00:44:17.205Z,962.06
2018-12-04T00:45:17.184Z,962.08
2018-12-04T00:46:17.176Z,962.08
2018-12-04T00:47:17.169Z,962.09
2018-12-04T00:48:17.169Z,962.10
2018-12-04T00:49:17.190Z,962.09
2018-12-04T00:50:17.162Z,962.01
2018-12-04T00:51:17.157Z,962.03
2018-12-04T00:52:17.156Z,962.04
2018-12-04T00:53:17.152Z,962.07
2018-12-04T00:54:17.178Z,962.04
2018-12-04T00:55:17.152Z,962.14
2018-12-04T00:56:17.144Z,962.16
2018-12-04T00:57:17.141Z,962.25
2018-12-04T00:58:17.138Z,962.24
2018-12-04T00:59:17.161Z,962.23
2018-12-04T01:00:17.140Z,962.26
2018-12-04T01:01:17.128Z,962.31
2018-12-04T01:02:17.132Z,962.33
2018-12-04T01:03:17.123Z,962.29
2018-12-04T01:04:17.144Z,962.31
2018-12-04T01:05:17.118Z,962.28
2018-12-04T01:06:17.113Z,962.38
2018-12-04T01:07:17.109Z,962.40
2018-12-04T01:08:17.110Z,962.45
2018-12-04T01:09:17.152Z,962.40
2018-12-04T01:10:17.109Z,962.48
2018-12-04T01:11:17.098Z,962.49
2018-12-04T01:12:17.098Z,962.54
2018-12-04T01:13:17.092Z,962.57
2018-12-04T01:14:17.117Z,962.55
2018-12-04T01:15:17.089Z,962.57
2018-12-04T01:16:17.084Z,962.57
2018-12-04T01:17:17.083Z,962.63
2018-12-04T01:18:17.077Z,962.64
2018-12-04T01:19:17.105Z,962.70
2018-12-04T01:20:17.077Z,962.72
2018-12-04T01:21:17.079Z,962.64
2018-12-04T01:22:17.066Z,962.65
2018-12-04T01:23:17.063Z,962.64
2018-12-04T01:24:17.084Z,962.69
2018-12-04T01:25:17.058Z,962.71
2018-12-04T01:26:17.060Z,962.72
2018-12-04T01:27:17.055Z,962.65
2018-12-04T01:28:17.052Z,962.74
2018-12-04T01:29:17.071Z,962.80
2018-12-04T01:30:17.041Z,962.77
2018-12-04T01:31:17.039Z,962.77
2018-12-04T01:32:17.036Z,962.80
2018-12-04T01:33:17.034Z,962.83
2018-12-04T01:34:17.057Z,962.91
2018-12-04T01:35:17.029Z,962.89
2018-12-04T01:36:17.027Z,962.90
2018-12-04T01:37:17.025Z,962.89
2018-12-04T01:38:17.056Z,962.87
2018-12-04T01:39:17.040Z,962.91
2018-12-04T01:40:17.021Z,962.97
2018-12-04T01:41:17.012Z,963.02
2018-12-04T01:42:17.006Z,963.03
2018-12-04T01:43:17.009Z,963.10
2018-12-04T01:44:17.028Z,963.10
2018-12-04T01:45:17.001Z,963.08
2018-12-04T01:46:17.000Z,963.14
2018-12-04T01:47:16.994Z,963.17
2018-12-04T01:48:16.993Z,963.20
2018-12-04T01:49:17.038Z,963.14
2018-12-04T01:50:16.988Z,963.20
2018-12-04T01:51:16.989Z,963.19
2018-12-04T01:52:16.978Z,963.21
2018-12-04T01:53:16.976Z,963.18
2018-12-04T01:54:17.008Z,963.21
2018-12-04T01:55:16.973Z,963.21
2018-12-04T01:56:16.973Z,963.27
2018-12-04T01:57:16.967Z,963.26
2018-12-04T01:58:16.964Z,963.30
2018-12-04T01:59:16.992Z,963.24
2018-12-04T02:00:16.963Z,963.29
2018-12-04T02:01:16.957Z,963.32
2018-12-04T02:02:16.953Z,963.31
2018-12-04T02:03:16.951Z,963.35
2018-12-04T02:04:16.976Z,963.33
2018-12-04T02:05:16.947Z,963.36
2018-12-04T02:06:16.980Z,963.33
2018-12-04T02:07:16.937Z,963.34
2018-12-04T02:08:16.960Z,963.29
2018-12-04T02:09:16.936Z,963.34
2018-12-04T02:10:16.941Z,963.27
2018-12-04T02:11:16.929Z,963.25
2018-12-04T02:12:16.925Z,963.26
2018-12-04T02:13:16.948Z,963.27
2018-12-04T02:14:16.923Z,963.29
2018-12-04T02:15:16.917Z,963.30
2018-12-04T02:16:16.916Z,963.29
2018-12-04T02:17:16.910Z,963.32
2018-12-04T02:18:16.940Z,963.31
2018-12-04T02:19:16.912Z,963.33
2018-12-04T02:20:16.914Z,963.39
2018-12-04T02:21:16.899Z,963.40
2018-12-04T02:22:16.897Z,963.40
2018-12-04T02:23:16.922Z,963.38
2018-12-04T02:24:16.891Z,963.40
2018-12-04T02:25:16.892Z,963.41
2018-12-04T02:26:16.887Z,963.39
2018-12-04T02:27:16.885Z,963.34
2018-12-04T02:28:16.920Z,963.39
2018-12-04T02:29:16.875Z,963.39
2018-12-04T02:30:16.886Z,963.40
2018-12-04T02:31:16.875Z,963.36
2018-12-04T02:32:16.867Z,963.46
2018-12-04T02:33:16.891Z,963.46
2018-12-04T02:34:16.863Z,963.43
2018-12-04T02:35:16.864Z,963.48
2018-12-04T02:36:16.864Z,963.41
2018-12-04T02:37:16.857Z,963.40
2018-12-04T02:38:16.878Z,963.47
2018-12-04T02:39:16.851Z,963.43
2018-12-04T02:40:16.847Z,963.47
2018-12-04T02:41:16.848Z,963.46
2018-12-04T02:42:16.846Z,963.44
2018-12-04T02:43:16.862Z,963.49
2018-12-04T02:44:16.837Z,963.49
2018-12-04T02:45:16.837Z,963.46
2018-12-04T02:46:16.838Z,963.50
2018-12-04T02:47:16.829Z,963.52
2018-12-04T02:48:16.851Z,963.54
2018-12-04T02:49:16.832Z,963.57
2018-12-04T02:50:16.823Z,963.55
2018-12-04T02:51:16.822Z,963.60
2018-12-04T02:52:16.841Z,963.61
2018-12-04T02:53:16.817Z,963.66
2018-12-04T02:54:16.839Z,963.63
2018-12-04T02:55:16.827Z,963.62
2018-12-04T02:56:16.804Z,963.69
2018-12-04T02:57:16.804Z,963.70
2018-12-04T02:58:16.824Z,963.69
2018-12-04T02:59:16.796Z,963.69
2018-12-04T03:00:16.802Z,963.73
2018-12-04T03:01:16.792Z,963.76
2018-12-04T03:02:16.800Z,963.70
2018-12-04T03:03:16.814Z,963.79
2018-12-04T03:04:16.783Z,963.80
2018-12-04T03:05:16.792Z,963.77
2018-12-04T03:06:16.780Z,963.80
2018-12-04T03:07:16.776Z,963.88
2018-12-04T03:08:16.797Z,963.88
2018-12-04T03:09:16.773Z,963.91
2018-12-04T03:10:17.309Z,963.90
2018-12-04T03:11:16.762Z,963.91
2018-12-04T03:12:16.765Z,963.89
2018-12-04T03:13:16.789Z,963.91
2018-12-04T03:14:16.759Z,963.92
2018-12-04T03:15:16.756Z,963.92
2018-12-04T03:16:16.750Z,963.92
2018-12-04T03:17:16.748Z,963.95
2018-12-04T03:18:16.772Z,964.03
2018-12-04T03:19:16.741Z,963.97
2018-12-04T03:20:16.747Z,964.04
2018-12-04T03:21:16.737Z,964.07
2018-12-04T03:22:16.735Z,964.08
2018-12-04T03:23:16.758Z,964.08
2018-12-04T03:24:16.726Z,964.11
2018-12-04T03:25:16.724Z,964.05
2018-12-04T03:26:16.725Z,964.05
2018-12-04T03:27:16.722Z,964.01
2018-12-04T03:28:16.744Z,963.99
2018-12-04T03:29:16.716Z,963.95
2018-12-04T03:30:16.714Z,963.97
2018-12-04T03:31:16.725Z,963.90
2018-12-04T03:32:16.733Z,963.89
2018-12-04T03:33:16.713Z,963.94
2018-12-04T03:34:16.702Z,963.90
2018-12-04T03:35:16.703Z,963.93
2018-12-04T03:36:16.699Z,963.88
2018-12-04T03:37:16.722Z,963.88
2018-12-04T03:38:16.693Z,963.88
2018-12-04T03:39:16.686Z,963.95
2018-12-04T03:40:16.683Z,963.98
2018-12-04T03:41:16.680Z,963.97
2018-12-04T03:42:16.706Z,963.95
2018-12-04T03:43:16.673Z,964.02
2018-12-04T03:44:16.676Z,964.03
2018-12-04T03:45:16.672Z,964.06
2018-12-04T03:46:16.671Z,964.11
2018-12-04T03:47:16.687Z,964.16
2018-12-04T03:48:16.692Z,964.12
2018-12-04T03:49:16.665Z,964.18
2018-12-04T03:50:16.653Z,964.20
2018-12-04T03:51:16.649Z,964.22
2018-12-04T03:52:16.648Z,964.22
2018-12-04T03:53:16.672Z,964.25
2018-12-04T03:54:16.645Z,964.30
2018-12-04T03:55:16.641Z,964.30
2018-12-04T03:56:16.636Z,964.34
2018-12-04T03:57:16.632Z,964.35
2018-12-04T03:58:16.653Z,964.42
2018-12-04T03:59:16.628Z,964.51
2018-12-04T04:00:16.627Z,964.54
2018-12-04T04:01:16.620Z,964.62
2018-12-04T04:02:16.618Z,964.57
2018-12-04T04:03:16.641Z,964.54
2018-12-04T04:04:16.611Z,964.61
2018-12-04T04:05:16.613Z,964.74
2018-12-04T04:06:16.603Z,965.08
2018-12-04T04:07:16.602Z,965.04
2018-12-04T04:08:16.624Z,965.15
2018-12-04T04:09:16.597Z,965.18
2018-12-04T04:10:17.303Z,965.37
2018-12-04T04:11:16.589Z,965.29
2018-12-04T04:12:16.594Z,965.17
2018-12-04T04:13:16.612Z,965.18
2018-12-04T04:14:16.586Z,965.07
2018-12-04T04:15:16.576Z,965.06
2018-12-04T04:16:16.574Z,965.03
2018-12-04T04:17:16.572Z,965.01
2018-12-04T04:18:16.600Z,964.99
2018-12-04T04:19:16.567Z,965.02
2018-12-04T04:20:16.610Z,965.02
2018-12-04T04:21:16.576Z,965.04
2018-12-04T04:22:16.557Z,965.05
2018-12-04T04:23:16.578Z,965.04
2018-12-04T04:24:16.548Z,965.04
2018-12-04T04:25:16.546Z,965.07
2018-12-04T04:26:16.541Z,965.09
2018-12-04T04:27:16.536Z,965.06
2018-12-04T04:28:16.564Z,965.09
2018-12-04T04:29:16.529Z,965.07
2018-12-04T04:30:16.526Z,965.07
2018-12-04T04:31:16.529Z,965.13
2018-12-04T04:32:16.523Z,965.12
2018-12-04T04:33:16.545Z,965.12
2018-12-04T04:34:16.516Z,965.12
2018-12-04T04:35:16.509Z,965.10
2018-12-04T04:36:16.505Z,965.13
2018-12-04T04:37:16.502Z,965.11
2018-12-04T04:38:16.526Z,965.18
2018-12-04T04:39:16.494Z,965.15
2018-12-04T04:40:16.495Z,965.15
2018-12-04T04:41:16.489Z,965.24
2018-12-04T04:42:16.492Z,965.23
2018-12-04T04:43:16.507Z,965.25
2018-12-04T04:44:16.480Z,965.20
2018-12-04T04:45:16.483Z,965.27
2018-12-04T04:46:16.519Z,965.28
2018-12-04T04:47:16.465Z,965.31
2018-12-04T04:48:16.494Z,965.27
2018-12-04T04:49:16.467Z,965.34
2018-12-04T04:50:16.453Z,965.30
2018-12-04T04:51:16.458Z,965.30
2018-12-04T04:52:16.449Z,965.33
2018-12-04T04:53:16.482Z,965.36
2018-12-04T04:54:16.446Z,965.41
2018-12-04T04:55:16.438Z,965.38
2018-12-04T04:56:16.438Z,965.40
2018-12-04T04:57:16.436Z,965.40
2018-12-04T04:58:16.457Z,965.42
2018-12-04T04:59:16.426Z,965.41
2018-12-04T05:00:16.421Z,965.42
2018-12-04T05:01:16.419Z,965.44
2018-12-04T05:02:16.444Z,965.41
2018-12-04T05:03:16.410Z,965.44
2018-12-04T05:04:16.406Z,965.50
2018-12-04T05:05:16.410Z,965.52
2018-12-04T05:06:16.920Z,965.65
2018-12-04T05:07:16.425Z,965.68
2018-12-04T05:08:16.589Z,965.69
2018-12-04T05:09:16.395Z,965.71
2018-12-04T05:10:16.385Z,965.81
2018-12-04T05:11:16.382Z,965.86
2018-12-04T05:12:16.379Z,965.85
2018-12-04T05:13:16.403Z,965.94
2018-12-04T05:14:16.376Z,966.00
2018-12-04T05:15:16.370Z,966.06
2018-12-04T05:16:16.366Z,966.10
2018-12-04T05:17:16.361Z,966.02
2018-12-04T05:18:16.384Z,966.23
2018-12-04T05:19:16.353Z,966.26
2018-12-04T05:20:16.351Z,966.27
2018-12-04T05:21:16.349Z,966.36
2018-12-04T05:22:16.343Z,966.44
2018-12-04T05:23:16.367Z,966.49
2018-12-04T05:24:16.339Z,966.62
2018-12-04T05:25:16.334Z,966.74
2018-12-04T05:26:16.331Z,966.74
2018-12-04T05:27:16.353Z,966.81
2018-12-04T05:28:16.320Z,966.84
2018-12-04T05:29:16.344Z,966.88
2018-12-04T05:30:16.316Z,966.89
2018-12-04T05:31:16.310Z,967.03
2018-12-04T05:32:16.311Z,967.04
2018-12-04T05:33:16.328Z,967.11
2018-12-04T05:34:16.301Z,967.21
2018-12-04T05:35:16.297Z,967.34
2018-12-04T05:36:16.292Z,967.42
2018-12-04T05:37:16.291Z,967.41
2018-12-04T05:38:16.315Z,967.48
2018-12-04T05:39:16.281Z,967.55
2018-12-04T05:40:16.279Z,967.57
2018-12-04T05:41:16.276Z,967.60
2018-12-04T05:42:16.272Z,967.63
2018-12-04T05:43:16.290Z,967.67
2018-12-04T05:44:16.262Z,967.74
2018-12-04T05:45:16.258Z,967.77
2018-12-04T05:46:16.255Z,967.78
2018-12-04T05:47:16.252Z,967.78
2018-12-04T05:48:16.275Z,967.88
2018-12-04T05:49:16.241Z,967.91
2018-12-04T05:50:16.239Z,967.98
2018-12-04T05:51:16.234Z,967.98
2018-12-04T05:52:16.235Z,967.96
2018-12-04T05:53:16.259Z,968.04
2018-12-04T05:54:16.250Z,968.04
2018-12-04T05:55:16.216Z,968.03
2018-12-04T05:56:16.217Z,968.05
2018-12-04T05:57:16.215Z,968.10
2018-12-04T05:58:16.207Z,968.09
2018-12-04T05:59:16.228Z,968.14
2018-12-04T06:00:16.199Z,968.18
2018-12-04T06:01:16.193Z,968.13
2018-12-04T06:02:16.192Z,968.24
2018-12-04T06:03:16.188Z,968.23
2018-12-04T06:04:16.217Z,968.29
2018-12-04T06:05:16.180Z,968.36
2018-12-04T06:06:16.187Z,968.44
2018-12-04T06:07:16.169Z,968.42
2018-12-04T06:08:16.164Z,968.49
2018-12-04T06:09:16.191Z,968.52
2018-12-04T06:10:16.155Z,968.54
2018-12-04T06:11:16.169Z,968.59
2018-12-04T06:12:16.148Z,968.66
2018-12-04T06:13:16.146Z,968.63
2018-12-04T06:14:16.164Z,968.67
2018-12-04T06:15:16.135Z,968.71
2018-12-04T06:16:16.131Z,968.70
2018-12-04T06:17:16.127Z,968.73
2018-12-04T06:18:16.124Z,968.75
2018-12-04T06:19:16.147Z,968.74
2018-12-04T06:20:16.112Z,968.76
2018-12-04T06:21:16.113Z,968.77
2018-12-04T06:22:16.104Z,968.82
2018-12-04T06:23:16.102Z,968.80
2018-12-04T06:24:16.123Z,968.81
2018-12-04T06:25:16.095Z,968.85
2018-12-04T06:26:16.088Z,968.89
2018-12-04T06:27:16.082Z,968.90
2018-12-04T06:28:16.083Z,968.95
2018-12-04T06:29:16.101Z,968.96
2018-12-04T06:30:16.070Z,968.99
2018-12-04T06:31:16.068Z,969.02
2018-12-04T06:32:16.059Z,969.04
2018-12-04T06:33:16.059Z,969.05
2018-12-04T06:34:16.080Z,969.08
2018-12-04T06:35:16.050Z,969.06
2018-12-04T06:36:16.044Z,969.12
2018-12-04T06:37:16.046Z,969.13
2018-12-04T06:38:16.039Z,969.20
2018-12-04T06:39:16.060Z,969.24
2018-12-04T06:40:16.030Z,969.26
2018-12-04T06:41:16.025Z,969.27
2018-12-04T06:42:16.020Z,969.32
2018-12-04T06:43:16.014Z,969.36
2018-12-04T06:44:16.038Z,969.37
2018-12-04T06:45:16.033Z,969.38
2018-12-04T06:46:16.002Z,969.40
2018-12-04T06:47:15.995Z,969.47
2018-12-04T06:48:15.991Z,969.49
2018-12-04T06:49:16.015Z,969.42
2018-12-04T06:50:15.984Z,969.42
2018-12-04T06:51:15.981Z,969.45
2018-12-04T06:52:15.975Z,969.53
2018-12-04T06:53:15.970Z,969.56
2018-12-04T06:54:15.993Z,969.66
2018-12-04T06:55:15.989Z,969.69
2018-12-04T06:56:15.959Z,969.69
2018-12-04T06:57:16.483Z,969.71
2018-12-04T06:58:15.950Z,969.77
2018-12-04T06:59:15.948Z,969.77
2018-12-04T07:00:15.964Z,969.85
2018-12-04T07:01:15.935Z,969.88
2018-12-04T07:02:15.931Z,969.91
2018-12-04T07:03:15.925Z,969.90
2018-12-04T07:04:15.926Z,969.94
2018-12-04T07:05:15.945Z,969.97
2018-12-04T07:06:15.914Z,970.02
2018-12-04T07:07:15.908Z,970.06
2018-12-04T07:08:16.871Z,970.07
2018-12-04T07:09:15.900Z,970.13
2018-12-04T07:10:15.926Z,970.17
2018-12-04T07:11:15.895Z,970.20
2018-12-04T07:12:15.887Z,970.22
2018-12-04T07:13:15.885Z,970.23
2018-12-04T07:14:15.880Z,970.31
2018-12-04T07:15:15.944Z,970.29
2018-12-04T07:16:15.874Z,970.32
2018-12-04T07:17:15.865Z,970.31
2018-12-04T07:18:15.867Z,970.43
2018-12-04T07:19:15.862Z,970.56
2018-12-04T07:20:15.877Z,970.59
2018-12-04T07:21:15.850Z,970.61
2018-12-04T07:22:15.905Z,970.66
2018-12-04T07:23:15.837Z,970.67
2018-12-04T07:24:15.834Z,970.73
2018-12-04T07:25:15.856Z,970.73
2018-12-04T07:26:15.885Z,970.72
2018-12-04T07:27:15.825Z,970.75
2018-12-04T07:28:15.827Z,970.73
2018-12-04T07:29:15.818Z,970.77
2018-12-04T07:30:15.841Z,970.80
2018-12-04T07:31:15.803Z,970.80
2018-12-04T07:32:15.800Z,970.87
2018-12-04T07:33:15.796Z,970.89
2018-12-04T07:34:15.791Z,970.91
2018-12-04T07:35:15.812Z,970.95
2018-12-04T07:36:15.782Z,970.96
2018-12-04T07:37:15.777Z,970.96
2018-12-04T07:38:15.771Z,970.95
2018-12-04T07:39:15.771Z,971.02
2018-12-04T07:40:15.790Z,971.04
2018-12-04T07:41:15.760Z,971.05
2018-12-04T07:42:15.757Z,971.02
2018-12-04T07:43:15.751Z,971.08
2018-12-04T07:44:15.754Z,971.08
2018-12-04T07:45:15.771Z,971.11
2018-12-04T07:46:15.737Z,971.18
2018-12-04T07:47:15.734Z,971.22
2018-12-04T07:48:15.731Z,971.18
2018-12-04T07:49:15.723Z,971.22
2018-12-04T07:50:15.747Z,971.25
2018-12-04T07:51:15.716Z,971.26
2018-12-04T07:52:15.710Z,971.31
2018-12-04T07:53:15.706Z,971.28
2018-12-04T07:54:15.701Z,971.34
2018-12-04T07:55:15.727Z,971.36
2018-12-04T07:56:15.690Z,971.38
2018-12-04T07:57:15.687Z,971.38
2018-12-04T07:58:15.879Z,971.41
2018-12-04T07:59:15.677Z,971.47
2018-12-04T08:00:15.710Z,971.43
2018-12-04T08:01:15.671Z,971.51
2018-12-04T08:02:15.672Z,971.55
2018-12-04T08:03:15.659Z,971.57
2018-12-04T08:04:15.656Z,971.62
2018-12-04T08:05:15.681Z,971.68
2018-12-04T08:06:15.650Z,971.69
2018-12-04T08:07:15.643Z,971.69
2018-12-04T08:08:15.646Z,971.66
2018-12-04T08:09:15.670Z,971.76
2018-12-04T08:10:15.667Z,971.79
2018-12-04T08:11:15.623Z,971.81
2018-12-04T08:12:15.623Z,971.85
2018-12-04T08:13:15.616Z,971.88
2018-12-04T08:14:15.612Z,971.94
2018-12-04T08:15:15.632Z,971.96
2018-12-04T08:16:15.609Z,971.94
2018-12-04T08:17:15.600Z,971.99
2018-12-04T08:18:15.595Z,971.97
2018-12-04T08:19:15.598Z,972.09
2018-12-04T08:20:15.612Z,972.06
2018-12-04T08:21:15.582Z,972.10
2018-12-04T08:22:15.577Z,972.14
2018-12-04T08:23:15.570Z,972.12
2018-12-04T08:24:15.569Z,972.20
2018-12-04T08:25:15.589Z,972.22
2018-12-04T08:26:15.563Z,972.28
2018-12-04T08:27:15.553Z,972.32
2018-12-04T08:28:15.552Z,972.39
2018-12-04T08:29:15.547Z,972.42
2018-12-04T08:30:15.593Z,972.47
2018-12-04T08:31:15.536Z,972.47
2018-12-04T08:32:15.533Z,972.48
2018-12-04T08:33:15.528Z,972.51
2018-12-04T08:34:15.529Z,972.52
2018-12-04T08:35:15.548Z,972.56
2018-12-04T08:36:15.520Z,972.56
2018-12-04T08:37:15.519Z,972.59
2018-12-04T08:38:15.509Z,972.60
2018-12-04T08:39:15.505Z,972.62
2018-12-04T08:40:15.529Z,972.63
2018-12-04T08:41:15.501Z,972.61
2018-12-04T08:42:15.497Z,972.56
2018-12-04T08:43:15.489Z,972.60
2018-12-04T08:44:15.489Z,972.61
2018-12-04T08:45:15.517Z,972.62
2018-12-04T08:46:15.492Z,972.66
2018-12-04T08:47:15.475Z,972.68
2018-12-04T08:48:15.467Z,972.74
2018-12-04T08:49:15.523Z,972.89
2018-12-04T08:50:15.513Z,972.85
2018-12-04T08:51:15.457Z,972.94
2018-12-04T08:52:15.453Z,972.97
2018-12-04T08:53:15.451Z,973.02
2018-12-04T08:54:15.447Z,973.03
2018-12-04T08:55:15.467Z,973.10
2018-12-04T08:56:15.441Z,973.16
2018-12-04T08:57:15.435Z,973.21
2018-12-04T08:58:15.434Z,973.48
2018-12-04T08:59:15.427Z,973.70
2018-12-04T09:00:15.448Z,974.01
2018-12-04T09:01:15.418Z,973.90
2018-12-04T09:02:15.418Z,973.85
2018-12-04T09:03:15.413Z,973.97
2018-12-04T09:04:15.414Z,973.77
2018-12-04T09:05:15.509Z,973.69
2018-12-04T09:06:15.408Z,973.67
2018-12-04T09:07:15.407Z,973.60
2018-12-04T09:08:15.436Z,973.65
2018-12-04T09:09:15.400Z,973.64
2018-12-04T09:10:15.425Z,973.59
2018-12-04T09:11:15.399Z,973.61
2018-12-04T09:12:15.396Z,973.68
2018-12-04T09:13:15.396Z,973.72
2018-12-04T09:14:15.390Z,973.73
2018-12-04T09:15:15.414Z,973.73
2018-12-04T09:16:15.384Z,973.75
2018-12-04T09:17:15.384Z,973.79
2018-12-04T09:18:15.440Z,973.80
2018-12-04T09:19:15.399Z,973.80
2018-12-04T09:20:15.406Z,973.86
2018-12-04T09:21:15.380Z,973.84
2018-12-04T09:22:16.066Z,973.87
2018-12-04T09:23:15.417Z,973.92
2018-12-04T09:24:15.369Z,973.95
2018-12-04T09:25:15.427Z,973.95
2018-12-04T09:26:15.376Z,973.89
2018-12-04T09:27:15.368Z,973.90
2018-12-04T09:28:15.351Z,974.04
2018-12-04T09:29:15.393Z,973.99
2018-12-04T09:30:15.402Z,974.05
2018-12-04T09:31:15.343Z,974.06
2018-12-04T09:32:15.337Z,974.05
2018-12-04T09:33:15.336Z,974.14
2018-12-04T09:34:15.330Z,974.09
2018-12-04T09:35:15.366Z,974.05
2018-12-04T09:36:15.324Z,974.21
2018-12-04T09:37:15.323Z,974.20
2018-12-04T09:38:15.341Z,974.16
2018-12-04T09:39:15.492Z,974.11
2018-12-04T09:40:16.099Z,974.17
2018-12-04T09:41:15.314Z,974.25
2018-12-04T09:42:15.330Z,974.26
2018-12-04T09:43:15.303Z,974.30
2018-12-04T09:44:15.298Z,974.31
2018-12-04T09:45:15.319Z,974.27
2018-12-04T09:46:15.295Z,974.27
2018-12-04T09:47:15.298Z,974.28
2018-12-04T09:48:15.287Z,974.35
2018-12-04T09:49:15.284Z,974.40
2018-12-04T09:50:15.306Z,974.42
2018-12-04T09:51:15.275Z,974.39
2018-12-04T09:52:15.272Z,974.50
2018-12-04T09:53:15.271Z,974.54
2018-12-04T09:54:15.264Z,974.53
2018-12-04T09:55:15.289Z,974.57
2018-12-04T09:56:15.257Z,974.63
2018-12-04T09:57:15.255Z,974.63
2018-12-04T09:58:17.824Z,974.62
2018-12-04T09:59:16.913Z,974.75
2018-12-04T10:00:15.282Z,974.72
2018-12-04T10:01:15.242Z,974.66
2018-12-04T10:02:15.238Z,974.62
2018-12-04T10:03:15.234Z,974.67
2018-12-04T10:04:15.229Z,974.70
2018-12-04T10:05:15.255Z,974.70
2018-12-04T10:06:15.275Z,974.74
2018-12-04T10:07:15.219Z,974.75
2018-12-04T10:08:15.218Z,974.73
2018-12-04T10:09:15.218Z,974.80
2018-12-04T10:10:15.238Z,974.81
2018-12-04T10:11:15.208Z,974.82
2018-12-04T10:12:15.208Z,974.75
2018-12-04T10:13:15.202Z,974.78
2018-12-04T10:14:16.213Z,974.84
2018-12-04T10:15:15.226Z,974.90
2018-12-04T10:16:15.190Z,974.81
2018-12-04T10:17:15.191Z,974.86
2018-12-04T10:18:15.187Z,974.80
2018-12-04T10:19:15.183Z,974.74
2018-12-04T10:20:15.207Z,974.81
2018-12-04T10:21:15.179Z,974.81
2018-12-04T10:22:15.979Z,974.84
2018-12-04T10:23:15.494Z,974.89
2018-12-04T10:24:15.350Z,974.95
2018-12-04T10:25:15.190Z,974.86
2018-12-04T10:26:15.161Z,974.85
2018-12-04T10:27:15.159Z,974.92
2018-12-04T10:28:15.156Z,975.06
2018-12-04T10:29:15.163Z,975.02
2018-12-04T10:30:15.177Z,974.99
2018-12-04T10:31:15.146Z,975.01
2018-12-04T10:32:15.147Z,975.07
2018-12-04T10:33:15.231Z,975.01
2018-12-04T10:34:15.147Z,975.03
2018-12-04T10:35:15.160Z,974.98
2018-12-04T10:36:15.151Z,974.99
2018-12-04T10:37:15.198Z,975.03
2018-12-04T10:38:15.157Z,975.02
2018-12-04T10:39:15.154Z,975.16
2018-12-04T10:40:15.123Z,975.08
2018-12-04T10:41:15.122Z,975.15
2018-12-04T10:42:15.184Z,975.07
2018-12-04T10:43:15.141Z,975.08
2018-12-04T10:44:15.120Z,975.07
2018-12-04T10:45:15.133Z,975.26
2018-12-04T10:46:15.108Z,975.27
2018-12-04T10:47:15.133Z,975.32
2018-12-04T10:48:15.098Z,975.33
2018-12-04T10:49:15.096Z,975.38
2018-12-04T10:50:15.123Z,975.39
2018-12-04T10:51:15.110Z,975.42
2018-12-04T10:52:15.114Z,975.36
2018-12-04T10:53:15.091Z,975.33
2018-12-04T10:54:15.083Z,975.32
2018-12-04T10:55:15.827Z,975.35
2018-12-04T10:56:15.172Z,975.45
2018-12-04T10:57:15.137Z,975.42
2018-12-04T10:58:15.106Z,975.52
2018-12-04T10:59:15.073Z,975.39
2018-12-04T11:00:15.070Z,975.40
2018-12-04T11:01:15.092Z,975.43
2018-12-04T11:02:15.072Z,975.40
2018-12-04T11:03:15.061Z,975.36
2018-12-04T11:04:15.062Z,975.37
2018-12-04T11:05:15.057Z,975.39
2018-12-04T11:06:15.084Z,975.36
2018-12-04T11:07:15.076Z,975.46
2018-12-04T11:08:15.050Z,976.16
2018-12-04T11:09:15.047Z,976.39
2018-12-04T11:10:15.046Z,976.51
2018-12-04T11:11:15.068Z,976.23
2018-12-04T11:12:15.043Z,976.11
2018-12-04T11:13:15.043Z,976.10
2018-12-04T11:14:15.039Z,976.30
2018-12-04T11:15:15.039Z,976.16
2018-12-04T11:16:15.067Z,976.34
2018-12-04T11:17:15.046Z,976.16
2018-12-04T11:18:15.039Z,976.13
2018-12-04T11:19:15.038Z,976.14
2018-12-04T11:20:15.043Z,975.99
2018-12-04T11:21:15.066Z,976.03
2018-12-04T11:22:15.038Z,975.92
2018-12-04T11:23:15.039Z,975.94
2018-12-04T11:24:15.038Z,975.93
2018-12-04T11:25:15.036Z,976.07
2018-12-04T11:26:15.061Z,976.03
2018-12-04T11:27:15.032Z,976.42
2018-12-04T11:28:15.039Z,976.23
2018-12-04T11:29:15.034Z,976.82
2018-12-04T11:30:15.031Z,976.95
2018-12-04T11:31:15.056Z,977.04
2018-12-04T11:32:15.030Z,977.02
2018-12-04T11:33:15.028Z,976.62
2018-12-04T11:34:15.031Z,977.03
2018-12-04T11:35:15.057Z,976.61
2018-12-04T11:36:15.031Z,976.57
2018-12-04T11:37:15.059Z,976.59
2018-12-04T11:38:15.033Z,976.56
2018-12-04T11:39:15.032Z,976.64
2018-12-04T11:40:15.034Z,976.63
2018-12-04T11:41:15.057Z,976.64
2018-12-04T11:42:15.035Z,976.68
2018-12-04T11:43:15.032Z,976.80
2018-12-04T11:44:15.033Z,976.74
2018-12-04T11:45:15.033Z,976.72
2018-12-04T11:46:15.060Z,976.75
2018-12-04T11:47:15.056Z,976.70
2018-12-04T11:48:15.031Z,976.69
2018-12-04T11:49:15.030Z,977.04
2018-12-04T11:50:15.032Z,977.07
2018-12-04T11:51:15.054Z,976.90
2018-12-04T11:52:15.029Z,976.81
2018-12-04T11:53:15.029Z,976.84
2018-12-04T11:54:15.028Z,976.88
2018-12-04T11:55:15.030Z,977.34
2018-12-04T11:56:15.052Z,977.00
2018-12-04T11:57:15.029Z,977.43
2018-12-04T11:58:15.029Z,977.49
2018-12-04T11:59:15.027Z,977.46
2018-12-04T12:00:15.026Z,977.47
2018-12-04T12:01:15.056Z,977.38
2018-12-04T12:02:15.029Z,977.48
2018-12-04T12:03:15.036Z,977.51
2018-12-04T12:04:15.037Z,977.45
2018-12-04T12:05:15.036Z,977.50
2018-12-04T12:06:15.063Z,977.54
2018-12-04T12:07:20.420Z,977.52
2018-12-04T12:08:15.040Z,977.51
2018-12-04T12:09:15.045Z,977.54
2018-12-04T12:10:15.046Z,977.53
2018-12-04T12:11:15.075Z,977.53
2018-12-04T12:12:15.053Z,977.60
2018-12-04T12:13:15.058Z,977.63
2018-12-04T12:14:15.061Z,977.65
2018-12-04T12:15:17.927Z,977.66
2018-12-04T12:16:15.099Z,977.67
2018-12-04T12:17:15.077Z,977.54
2018-12-04T12:18:15.083Z,977.38
2018-12-04T12:19:15.085Z,977.25
2018-12-04T12:20:15.089Z,977.24
2018-12-04T12:21:15.122Z,977.24
2018-12-04T12:22:15.099Z,977.27
2018-12-04T12:23:15.104Z,977.38
2018-12-04T12:24:15.108Z,977.32
2018-12-04T12:25:15.113Z,977.26
2018-12-04T12:26:15.147Z,977.43
2018-12-04T12:27:15.122Z,977.29
2018-12-04T12:28:15.146Z,977.73
2018-12-04T12:29:15.122Z,977.59
2018-12-04T12:30:15.124Z,977.76
2018-12-04T12:31:15.124Z,977.44
2018-12-04T12:32:15.150Z,977.42
2018-12-04T12:33:15.125Z,977.45
2018-12-04T12:34:15.126Z,977.84
2018-12-04T12:35:15.128Z,977.85
2018-12-04T12:36:15.131Z,977.95
2018-12-04T12:37:15.164Z,977.92